createdAt,value
2023-01-20T00:01:30.412Z,1.65
2023-01-20T00:03:58.252Z,0.47
2023-01-20T00:06:28.020Z,0.70
2023-01-20T00:09:00.542Z,0.68
2023-01-20T00:11:28.331Z,0.40
2023-01-20T00:13:57.604Z,0.85
2023-01-20T00:16:25.203Z,0.60
2023-01-20T00:18:52.641Z,0.43
2023-01-20T00:21:19.727Z,0.38
2023-01-20T00:23:47.509Z,0.65
2023-01-20T00:26:24.965Z,0.60
2023-01-20T00:28:55.241Z,0.80
2023-01-20T00:31:24.632Z,0.60
2023-01-20T00:33:52.589Z,0.80
2023-01-20T00:36:21.352Z,0.57
2023-01-20T00:38:48.204Z,0.93
2023-01-20T00:41:15.484Z,1.25
2023-01-20T00:43:42.338Z,0.57
2023-01-20T00:46:09.591Z,0.30
2023-01-20T00:48:37.071Z,0.88
2023-01-20T00:51:04.964Z,1.38
2023-01-20T00:53:31.995Z,1.15
2023-01-20T00:55:59.365Z,0.70
2023-01-20T00:58:26.468Z,1.45
2023-01-20T01:00:55.332Z,0.93
2023-01-20T01:03:22.523Z,1.25
2023-01-20T01:05:49.277Z,0.98
2023-01-20T01:08:16.028Z,1.40
2023-01-20T01:10:42.744Z,0.52
2023-01-20T01:13:09.799Z,1.30
2023-01-20T01:15:36.555Z,0.60
2023-01-20T01:18:04.079Z,1.33
2023-01-20T01:20:30.822Z,0.95
2023-01-20T01:22:57.568Z,1.08
2023-01-20T01:25:24.260Z,1.38
2023-01-20T01:27:51.033Z,1.05
2023-01-20T01:30:17.957Z,1.80
2023-01-20T01:32:44.723Z,1.77
2023-01-20T01:35:11.568Z,1.15
2023-01-20T01:37:38.429Z,1.48
2023-01-20T01:40:05.853Z,1.38
2023-01-20T01:42:32.497Z,1.50
2023-01-20T01:45:11.793Z,1.27
2023-01-20T01:47:48.302Z,1.08
2023-01-20T01:50:33.242Z,1.10
2023-01-20T01:53:00.542Z,1.13
2023-01-20T01:55:31.148Z,1.10
2023-01-20T01:57:59.662Z,1.98
2023-01-20T02:00:26.811Z,1.35
2023-01-20T02:02:55.683Z,1.73
2023-01-20T02:05:24.190Z,1.05
2023-01-20T02:07:51.657Z,2.20
2023-01-20T02:10:18.476Z,2.28
2023-01-20T02:12:49.621Z,2.05
2023-01-20T02:36:53.355Z,2.63
2023-01-20T02:39:28.651Z,2.28
2023-01-20T02:42:26.597Z,1.38
2023-01-20T02:45:09.089Z,1.63
2023-01-20T02:47:40.156Z,2.40
2023-01-20T02:50:34.651Z,2.55
2023-01-20T02:53:03.688Z,2.17
2023-01-20T02:55:47.306Z,2.35
2023-01-20T02:58:16.806Z,3.65
2023-01-20T03:00:50.614Z,2.35
2023-01-20T03:03:24.077Z,2.47
2023-01-20T03:05:58.313Z,3.83
2023-01-20T03:08:28.640Z,3.80
2023-01-20T03:10:59.391Z,3.75
2023-01-20T03:13:38.903Z,4.47
2023-01-20T03:16:26.542Z,3.30
2023-01-20T03:18:55.180Z,4.63
2023-01-20T03:21:22.607Z,3.92
2023-01-20T03:23:52.140Z,5.40
2023-01-20T03:26:21.003Z,5.32
2023-01-20T03:28:48.898Z,4.90
2023-01-20T03:31:24.223Z,5.45
2023-01-20T03:33:54.381Z,4.13
2023-01-20T03:36:24.255Z,4.60
2023-01-20T03:38:51.750Z,4.03
2023-01-20T03:41:43.219Z,3.92
2023-01-20T03:44:14.071Z,3.83
2023-01-20T03:46:59.911Z,4.90
2023-01-20T03:49:47.492Z,5.55
2023-01-20T03:52:22.499Z,5.43
2023-01-20T03:55:00.585Z,3.88
2023-01-20T03:57:35.947Z,5.10
2023-01-20T04:00:07.667Z,4.93
2023-01-20T04:02:35.956Z,5.30
2023-01-20T04:05:03.824Z,5.32
2023-01-20T04:07:32.435Z,6.32
2023-01-20T04:10:06.664Z,7.88
2023-01-20T04:12:33.461Z,5.18
2023-01-20T04:15:01.816Z,5.22
2023-01-20T04:17:29.497Z,6.82
2023-01-20T04:19:57.355Z,5.25
2023-01-20T04:22:38.686Z,6.45
2023-01-20T04:25:21.277Z,6.85
2023-01-20T04:27:48.189Z,6.15
2023-01-20T04:30:15.983Z,6.85
2023-01-20T04:32:42.585Z,6.00
2023-01-20T04:35:16.002Z,6.00
2023-01-20T04:37:44.716Z,8.13
2023-01-20T04:40:12.325Z,4.72
2023-01-20T04:42:38.955Z,5.35
2023-01-20T04:45:06.089Z,6.93
2023-01-20T04:47:33.839Z,8.23
2023-01-20T04:50:00.621Z,6.72
2023-01-20T04:52:27.400Z,6.13
2023-01-20T04:54:54.151Z,5.13
2023-01-20T04:57:20.782Z,5.93
2023-01-20T04:59:47.401Z,5.88
2023-01-20T05:02:14.099Z,6.78
2023-01-20T05:04:40.869Z,5.55
2023-01-20T05:07:07.657Z,6.28
2023-01-20T05:09:34.456Z,5.63
2023-01-20T05:12:01.222Z,4.90
2023-01-20T05:14:29.118Z,6.72
2023-01-20T05:16:55.715Z,7.60
2023-01-20T05:19:22.353Z,6.68
2023-01-20T05:21:49.126Z,6.20
2023-01-20T05:24:15.871Z,7.95
2023-01-20T05:26:42.559Z,7.25
2023-01-20T05:29:09.216Z,5.95
2023-01-20T05:31:37.593Z,6.95
2023-01-20T05:34:04.974Z,7.10
2023-01-20T05:36:32.927Z,7.68
2023-01-20T05:38:59.612Z,6.75
2023-01-20T05:41:26.351Z,6.00
2023-01-20T05:43:54.091Z,4.43
2023-01-20T05:46:22.173Z,5.75
2023-01-20T05:48:48.878Z,7.38
2023-01-20T05:51:15.963Z,7.05
2023-01-20T05:53:42.752Z,5.90
2023-01-20T05:56:11.987Z,7.15
2023-01-20T05:58:38.600Z,5.65
2023-01-20T06:01:11.474Z,5.72
2023-01-20T06:03:41.169Z,6.57
2023-01-20T06:06:14.293Z,8.45
2023-01-20T06:08:41.717Z,5.75
2023-01-20T06:11:08.363Z,8.93
2023-01-20T06:13:39.728Z,7.35
2023-01-20T06:16:07.556Z,6.20
2023-01-20T06:18:34.564Z,6.53
2023-01-20T06:21:01.439Z,7.07
2023-01-20T06:23:28.864Z,5.53
2023-01-20T06:26:07.348Z,7.25
2023-01-20T06:28:34.710Z,6.00
2023-01-20T06:31:10.819Z,6.18
2023-01-20T06:33:37.753Z,5.90
2023-01-20T06:36:05.781Z,5.07
2023-01-20T06:38:35.703Z,6.88
2023-01-20T06:41:05.313Z,6.57
2023-01-20T06:43:34.135Z,6.22
2023-01-20T06:46:06.369Z,7.28
2023-01-20T06:48:33.484Z,8.18
2023-01-20T06:51:04.527Z,7.50
2023-01-20T06:53:31.563Z,6.28
2023-01-20T06:56:00.012Z,6.35
2023-01-20T06:58:29.108Z,6.18
2023-01-20T07:00:57.044Z,8.35
2023-01-20T07:03:24.234Z,7.72
2023-01-20T07:06:00.445Z,7.93
2023-01-20T07:08:27.411Z,6.07
2023-01-20T07:10:54.024Z,6.50
2023-01-20T07:13:20.644Z,6.07
2023-01-20T07:15:47.347Z,5.65
2023-01-20T07:18:14.211Z,5.70
2023-01-20T07:20:40.963Z,4.20
2023-01-20T07:23:07.640Z,6.75
2023-01-20T07:25:34.471Z,6.07
2023-01-20T07:28:01.187Z,5.53
2023-01-20T07:30:27.971Z,4.90
2023-01-20T07:32:54.620Z,4.75
2023-01-20T07:35:21.263Z,4.55
2023-01-20T07:37:50.171Z,4.38
2023-01-20T07:40:18.157Z,4.75
2023-01-20T07:42:44.960Z,5.53
2023-01-20T07:45:12.130Z,7.22
2023-01-20T07:47:38.852Z,5.93
2023-01-20T07:50:06.031Z,6.60
2023-01-20T07:52:32.728Z,6.32
2023-01-20T07:54:59.345Z,3.88
2023-01-20T07:57:26.016Z,5.32
2023-01-20T07:59:53.028Z,4.78
2023-01-20T08:02:21.054Z,6.30
2023-01-20T08:04:47.874Z,4.95
2023-01-20T08:07:14.477Z,5.68
2023-01-20T08:09:41.881Z,5.28
2023-01-20T08:12:08.547Z,5.90
2023-01-20T08:14:37.726Z,5.60
2023-01-20T08:17:04.659Z,5.13
2023-01-20T08:19:31.250Z,4.10
2023-01-20T08:21:58.085Z,4.97
2023-01-20T08:24:24.685Z,4.10
2023-01-20T08:26:51.519Z,5.55
2023-01-20T08:29:18.325Z,4.55
2023-01-20T08:31:46.180Z,4.55
2023-01-20T08:34:13.063Z,5.03
2023-01-20T08:36:41.468Z,4.95
2023-01-20T08:39:13.130Z,4.30
2023-01-20T08:41:43.615Z,4.40
2023-01-20T08:44:11.468Z,3.83
2023-01-20T08:46:41.672Z,4.00
2023-01-20T08:49:16.785Z,5.07
2023-01-20T08:51:45.126Z,3.47
2023-01-20T08:54:12.189Z,2.85
2023-01-20T08:56:38.909Z,4.63
2023-01-20T08:59:05.904Z,3.92
2023-01-20T09:01:36.080Z,4.70
2023-01-20T09:04:06.188Z,4.45
2023-01-20T09:06:49.460Z,5.07
2023-01-20T09:09:18.311Z,3.30
2023-01-20T09:11:50.609Z,4.38
2023-01-20T09:14:21.876Z,3.97
2023-01-20T09:16:48.820Z,3.60
2023-01-20T09:19:15.629Z,4.90
2023-01-20T09:21:43.603Z,4.18
2023-01-20T09:24:10.459Z,3.83
2023-01-20T09:26:40.008Z,4.38
2023-01-20T09:29:13.067Z,4.50
2023-01-20T09:31:45.685Z,4.38
2023-01-20T09:34:19.192Z,5.90
2023-01-20T09:36:46.206Z,4.95
2023-01-20T09:39:32.729Z,4.97
2023-01-20T09:42:41.331Z,4.57
2023-01-20T09:45:27.700Z,4.10
2023-01-20T09:48:15.253Z,3.47
2023-01-20T09:51:15.124Z,3.20
2023-01-20T09:53:49.410Z,3.78
2023-01-20T09:56:22.200Z,4.22
2023-01-20T09:59:10.665Z,2.88
2023-01-20T10:01:48.735Z,4.97
2023-01-20T10:04:30.142Z,4.95
2023-01-20T10:07:12.360Z,5.40
2023-01-20T10:09:49.708Z,5.38
2023-01-20T10:12:20.223Z,4.82
2023-01-20T10:14:58.416Z,2.97
2023-01-20T10:17:32.511Z,4.10
2023-01-20T10:20:12.900Z,4.57
2023-01-20T10:23:08.261Z,4.20
2023-01-20T10:25:47.371Z,4.95
2023-01-20T10:28:32.551Z,3.60
2023-01-20T10:31:03.201Z,4.38
2023-01-20T10:33:44.085Z,3.92
2023-01-20T10:36:27.040Z,3.67
2023-01-20T10:39:13.910Z,4.28
2023-01-20T10:41:46.902Z,5.05
2023-01-20T10:44:15.251Z,4.88
2023-01-20T10:46:54.032Z,4.72
2023-01-20T10:49:44.065Z,4.32
2023-01-20T10:52:38.070Z,4.55
2023-01-20T10:55:19.795Z,3.90
2023-01-20T10:57:58.961Z,3.90
2023-01-20T11:00:29.105Z,4.30
2023-01-20T11:03:00.774Z,3.90
2023-01-20T11:05:39.088Z,4.00
2023-01-20T11:08:22.583Z,3.60
2023-01-20T11:10:56.885Z,6.30
2023-01-20T11:13:23.639Z,3.30
2023-01-20T11:15:55.024Z,4.00
2023-01-20T11:18:30.138Z,4.47
2023-01-20T11:21:07.142Z,3.63
2023-01-20T11:23:39.829Z,4.65
2023-01-20T11:26:30.409Z,4.57
2023-01-20T11:29:03.063Z,4.50
2023-01-20T11:31:47.373Z,4.75
2023-01-20T11:34:23.386Z,5.50
2023-01-20T11:36:51.722Z,4.07
2023-01-20T11:39:30.752Z,4.97
2023-01-20T11:42:23.741Z,4.65
2023-01-20T11:44:52.255Z,4.63
2023-01-20T11:48:00.424Z,4.60
2023-01-20T11:51:01.252Z,5.53
2023-01-20T11:53:33.826Z,4.93
2023-01-20T11:56:15.330Z,4.28
2023-01-20T11:58:55.884Z,4.35
2023-01-20T12:01:25.828Z,4.07
2023-01-20T12:04:13.998Z,5.22
2023-01-20T12:07:00.475Z,3.33
2023-01-20T12:09:39.266Z,5.03
2023-01-20T12:12:33.759Z,3.08
2023-01-20T12:15:09.829Z,3.97
2023-01-20T12:17:51.144Z,4.40
2023-01-20T12:20:53.682Z,3.92
2023-01-20T12:23:33.655Z,4.88
2023-01-20T12:26:04.981Z,5.35
2023-01-20T12:28:41.441Z,3.33
2023-01-20T12:31:10.952Z,3.85
2023-01-20T12:33:45.738Z,4.40
2023-01-20T12:36:31.333Z,3.55
2023-01-20T12:39:16.946Z,5.57
2023-01-20T12:42:15.478Z,3.80
2023-01-20T12:44:57.081Z,4.32
2023-01-20T12:47:45.158Z,3.30
2023-01-20T12:50:32.359Z,3.72
2023-01-20T12:53:14.341Z,3.95
2023-01-20T12:56:19.517Z,5.25
2023-01-20T12:59:17.299Z,3.90
2023-01-20T13:01:59.160Z,4.35
2023-01-20T13:04:54.080Z,5.18
2023-01-20T13:07:35.804Z,5.10
2023-01-20T13:10:49.386Z,4.25
2023-01-20T13:13:56.419Z,4.47
2023-01-20T13:16:33.658Z,4.80
2023-01-20T13:19:06.743Z,4.43
2023-01-20T13:21:34.747Z,3.83
2023-01-20T13:24:06.262Z,4.00
2023-01-20T13:26:34.325Z,4.53
2023-01-20T13:29:00.988Z,4.22
2023-01-20T13:31:36.645Z,4.80
2023-01-20T13:34:41.493Z,4.97
2023-01-20T13:37:26.105Z,4.03
2023-01-20T13:39:54.560Z,4.45
2023-01-20T13:42:37.708Z,4.45
2023-01-20T13:45:18.397Z,4.43
2023-01-20T13:48:08.261Z,3.13
2023-01-20T13:50:37.570Z,5.82
2023-01-20T13:53:10.464Z,4.22
2023-01-20T13:55:45.692Z,4.43
2023-01-20T13:58:23.471Z,4.28
2023-01-20T14:00:56.258Z,4.47
2023-01-20T14:03:29.154Z,4.13
2023-01-20T14:06:07.131Z,4.28
2023-01-20T14:08:48.964Z,4.65
2023-01-20T14:11:21.955Z,5.15
2023-01-20T14:13:56.584Z,5.05
2023-01-20T14:16:27.002Z,5.80
2023-01-20T14:18:59.712Z,4.43
2023-01-20T14:21:38.632Z,3.97
2023-01-20T14:24:05.532Z,4.50
2023-01-20T14:26:32.329Z,4.50
2023-01-20T14:29:03.194Z,3.92
2023-01-20T14:31:40.640Z,4.93
2023-01-20T14:34:23.496Z,4.93
2023-01-20T14:36:51.140Z,3.13
2023-01-20T14:39:23.885Z,4.22
2023-01-20T14:41:59.065Z,4.28
2023-01-20T14:44:29.870Z,5.53
2023-01-20T14:46:59.552Z,4.90
2023-01-20T14:49:39.615Z,5.32
2023-01-20T14:52:08.389Z,5.20
2023-01-20T14:54:49.751Z,4.30
2023-01-20T14:57:40.602Z,4.70
2023-01-20T15:00:21.870Z,4.80
2023-01-20T15:03:05.331Z,4.00
2023-01-20T15:05:38.707Z,3.15
2023-01-20T15:08:26.264Z,3.83
2023-01-20T15:11:19.486Z,5.28
2023-01-20T15:13:54.941Z,4.43
2023-01-20T15:16:30.220Z,5.28
2023-01-20T15:19:18.504Z,5.03
2023-01-20T15:21:53.052Z,4.32
2023-01-20T15:24:22.285Z,6.05
2023-01-20T15:26:51.995Z,5.68
2023-01-20T15:29:24.286Z,5.78
2023-01-20T15:31:52.206Z,6.10
2023-01-20T15:34:19.931Z,4.00
2023-01-20T15:36:47.731Z,6.60
2023-01-20T15:39:16.178Z,5.53
2023-01-20T15:41:43.496Z,6.43
2023-01-20T15:44:10.204Z,7.63
2023-01-20T15:46:38.554Z,6.43
2023-01-20T15:49:12.912Z,6.38
2023-01-20T15:51:44.725Z,6.82
2023-01-20T15:54:13.683Z,6.65
2023-01-20T15:56:41.660Z,7.20
2023-01-20T15:59:23.400Z,8.05
2023-01-20T16:01:50.761Z,7.95
2023-01-20T16:04:17.884Z,6.80
2023-01-20T16:06:45.423Z,8.15
2023-01-20T16:09:27.077Z,7.00
2023-01-20T16:11:54.581Z,6.43
2023-01-20T16:14:21.491Z,6.05
2023-01-20T16:16:48.088Z,7.43
2023-01-20T16:19:15.655Z,7.22
2023-01-20T16:21:45.235Z,6.30
2023-01-20T16:24:12.676Z,7.88
2023-01-20T16:26:39.562Z,7.93
2023-01-20T16:29:06.378Z,6.88
2023-01-20T16:31:33.908Z,7.13
2023-01-20T16:34:00.785Z,6.63
2023-01-20T16:36:27.763Z,7.82
2023-01-20T16:38:55.442Z,5.47
2023-01-20T16:41:27.788Z,6.50
2023-01-20T16:43:55.584Z,5.78
2023-01-20T16:46:25.402Z,6.38
2023-01-20T16:48:54.402Z,5.40
2023-01-20T16:51:23.275Z,4.82
2023-01-20T16:53:50.223Z,6.22
2023-01-20T16:56:20.426Z,6.28
2023-01-20T16:58:48.326Z,6.60
2023-01-20T17:01:15.845Z,6.45
2023-01-20T17:03:42.701Z,5.20
2023-01-20T17:06:18.386Z,6.88
2023-01-20T17:08:50.989Z,6.43
2023-01-20T17:11:18.981Z,4.85
2023-01-20T17:13:46.589Z,7.20
2023-01-20T17:16:16.689Z,5.95
2023-01-20T17:18:46.334Z,7.00
2023-01-20T17:21:14.072Z,5.75
2023-01-20T17:23:41.283Z,5.28
2023-01-20T17:26:08.717Z,6.60
2023-01-20T17:28:35.790Z,5.63
2023-01-20T17:31:06.655Z,5.22
2023-01-20T17:33:34.077Z,4.63
2023-01-20T17:36:05.996Z,5.57
2023-01-20T17:38:41.657Z,5.80
2023-01-20T17:41:08.733Z,5.90
2023-01-20T17:43:38.166Z,5.97
2023-01-20T17:46:18.550Z,5.90
2023-01-20T17:48:46.081Z,6.15
2023-01-20T17:51:21.733Z,5.28
2023-01-20T17:53:53.162Z,5.47
2023-01-20T17:56:21.621Z,6.22
2023-01-20T17:58:49.257Z,5.32
2023-01-20T18:01:19.898Z,6.50
2023-01-20T18:03:48.643Z,6.88
2023-01-20T18:06:17.775Z,7.60
2023-01-20T18:08:49.332Z,6.05
2023-01-20T18:11:16.351Z,6.38
2023-01-20T18:13:46.282Z,7.03
2023-01-20T18:16:17.310Z,6.68
2023-01-20T18:18:44.857Z,4.95
2023-01-20T18:21:14.651Z,6.72
2023-01-20T18:23:42.693Z,6.28
2023-01-20T18:26:10.987Z,6.10
2023-01-20T18:28:38.067Z,6.22
2023-01-20T18:31:13.693Z,5.30
2023-01-20T18:33:44.466Z,6.40
2023-01-20T18:36:15.186Z,6.80
2023-01-20T18:38:45.422Z,7.03
2023-01-20T18:41:14.533Z,6.75
2023-01-20T18:43:41.915Z,6.35
2023-01-20T18:46:09.387Z,5.97
2023-01-20T18:48:40.995Z,6.45
2023-01-20T18:51:10.387Z,7.00
2023-01-20T18:53:37.258Z,7.32
2023-01-20T18:56:06.492Z,7.90
2023-01-20T18:58:35.282Z,6.63
2023-01-20T19:01:14.419Z,5.85
2023-01-20T19:03:41.398Z,6.13
2023-01-20T19:06:15.006Z,7.28
2023-01-20T19:08:43.624Z,6.28
2023-01-20T19:11:18.896Z,7.47
2023-01-20T19:13:48.648Z,8.07
2023-01-20T19:16:16.768Z,6.25
2023-01-20T19:18:45.017Z,7.53
2023-01-20T19:21:15.311Z,5.22
2023-01-20T19:23:43.581Z,6.00
2023-01-20T19:26:12.997Z,5.63
2023-01-20T19:28:40.713Z,6.18
2023-01-20T19:31:15.378Z,7.10
2023-01-20T19:33:43.035Z,5.25
2023-01-20T19:36:15.384Z,4.90
2023-01-20T19:38:42.544Z,6.60
2023-01-20T19:41:17.756Z,6.65
2023-01-20T19:43:47.716Z,6.57
2023-01-20T19:46:17.597Z,6.85
2023-01-20T19:48:44.707Z,5.20
2023-01-20T19:51:22.640Z,5.47
2023-01-20T19:53:57.511Z,6.47
2023-01-20T19:56:31.193Z,7.68
2023-01-20T19:59:05.955Z,5.93
2023-01-20T20:01:37.389Z,6.50
2023-01-20T20:04:07.455Z,6.38
2023-01-20T20:06:38.339Z,5.75
2023-01-20T20:09:20.489Z,7.25
2023-01-20T20:11:50.327Z,6.65
2023-01-20T20:14:19.537Z,5.30
2023-01-20T20:16:47.130Z,6.43
2023-01-20T20:19:17.450Z,7.38
2023-01-20T20:21:44.605Z,5.60
2023-01-20T20:24:13.309Z,6.65
2023-01-20T20:26:40.268Z,6.47
2023-01-20T20:29:08.550Z,7.22
2023-01-20T20:31:38.360Z,5.60
2023-01-20T20:34:07.852Z,6.85
2023-01-20T20:36:35.401Z,7.47
2023-01-20T20:39:05.041Z,6.35
2023-01-20T20:41:33.460Z,8.23
2023-01-20T20:44:01.765Z,6.50
2023-01-20T20:46:29.056Z,6.75
2023-01-20T20:48:59.135Z,7.28
2023-01-20T20:51:26.744Z,7.05
2023-01-20T20:53:55.645Z,8.15
2023-01-20T20:56:23.301Z,6.90
2023-01-20T20:59:01.003Z,6.72
2023-01-20T21:01:31.121Z,7.32
2023-01-20T21:04:00.461Z,7.65
2023-01-20T21:06:28.436Z,7.82
2023-01-20T21:08:58.453Z,5.45
2023-01-20T21:11:25.353Z,7.18
2023-01-20T21:13:55.516Z,7.05
2023-01-20T21:16:24.049Z,5.65
2023-01-20T21:18:53.806Z,7.22
2023-01-20T21:21:24.111Z,7.50
2023-01-20T21:23:52.617Z,6.05
2023-01-20T21:26:19.802Z,8.82
2023-01-20T21:28:49.142Z,5.88
2023-01-20T21:31:19.265Z,6.00
2023-01-20T21:33:46.935Z,5.93
2023-01-20T21:36:13.931Z,5.40
2023-01-20T21:38:46.200Z,6.03
2023-01-20T21:41:17.519Z,6.72
2023-01-20T21:44:06.394Z,6.38
2023-01-20T21:46:39.312Z,4.63
2023-01-20T21:49:26.365Z,7.53
2023-01-20T21:52:12.760Z,6.22
2023-01-20T21:54:44.909Z,5.78
2023-01-20T21:57:13.028Z,5.57
2023-01-20T21:59:39.679Z,4.35
2023-01-20T22:02:07.600Z,6.50
2023-01-20T22:04:34.288Z,6.95
2023-01-20T22:07:03.006Z,4.97
2023-01-20T22:09:29.655Z,6.15
2023-01-20T22:12:00.818Z,6.72
2023-01-20T22:14:27.548Z,5.13
2023-01-20T22:16:56.258Z,5.80
2023-01-20T22:19:22.908Z,6.50
2023-01-20T22:21:53.170Z,6.32
2023-01-20T22:24:19.904Z,5.22
2023-01-20T22:26:50.809Z,5.78
2023-01-20T22:29:18.067Z,5.68
2023-01-20T22:31:45.683Z,5.75
2023-01-20T22:34:15.601Z,5.35
2023-01-20T22:36:46.081Z,5.90
2023-01-20T22:39:14.183Z,6.85
2023-01-20T22:41:41.627Z,6.20
2023-01-20T22:44:08.512Z,6.32
2023-01-20T22:46:36.267Z,4.82
2023-01-20T22:49:03.038Z,6.68
2023-01-20T22:51:30.320Z,4.50
2023-01-20T22:53:59.398Z,4.82
2023-01-20T22:56:31.989Z,4.90
2023-01-20T22:59:03.398Z,4.90
2023-01-20T23:01:33.095Z,4.93
2023-01-20T23:04:02.102Z,6.45
2023-01-20T23:06:32.618Z,6.82
2023-01-20T23:09:01.004Z,5.70
2023-01-20T23:11:28.504Z,7.38
2023-01-20T23:13:55.493Z,5.30
2023-01-20T23:16:22.811Z,5.28
2023-01-20T23:18:51.125Z,5.97
2023-01-20T23:21:18.615Z,5.47
2023-01-20T23:23:45.436Z,4.28
2023-01-20T23:26:18.979Z,4.43
2023-01-20T23:28:47.015Z,6.60
2023-01-20T23:31:16.095Z,6.07
2023-01-20T23:33:44.130Z,4.55
2023-01-20T23:36:14.365Z,6.35
2023-01-20T23:38:41.984Z,5.38
2023-01-20T23:41:08.903Z,6.25
2023-01-20T23:43:35.657Z,5.68
2023-01-20T23:46:05.035Z,6.38
2023-01-20T23:48:32.676Z,4.95
2023-01-20T23:51:00.418Z,6.60
2023-01-20T23:53:30.598Z,5.68
2023-01-20T23:56:02.175Z,3.42
2023-01-20T23:58:29.572Z,4.43
